sensor_id;sensor_type;location;lat;lon;timestamp;temperature;humidity
45491;DHT22;31237;45.586;13.782;2023-04-08T00:01:09;6.20;66.60
45491;DHT22;31237;45.586;13.782;2023-04-08T00:03:36;6.30;66.60
45491;DHT22;31237;45.586;13.782;2023-04-08T00:06:01;6.20;66.50
45491;DHT22;31237;45.586;13.782;2023-04-08T00:08:28;6.20;66.50
45491;DHT22;31237;45.586;13.782;2023-04-08T00:10:54;6.20;66.40
45491;DHT22;31237;45.586;13.782;2023-04-08T00:13:19;6.30;66.50
45491;DHT22;31237;45.586;13.782;2023-04-08T00:15:45;6.30;66.50
45491;DHT22;31237;45.586;13.782;2023-04-08T00:18:12;6.30;66.40
45491;DHT22;31237;45.586;13.782;2023-04-08T00:20:38;6.40;66.40
45491;DHT22;31237;45.586;13.782;2023-04-08T00:23:04;6.40;66.30
45491;DHT22;31237;45.586;13.782;2023-04-08T00:25:30;6.40;66.20
45491;DHT22;31237;45.586;13.782;2023-04-08T00:27:55;6.40;66.20
45491;DHT22;31237;45.586;13.782;2023-04-08T00:30:21;6.40;66.00
45491;DHT22;31237;45.586;13.782;2023-04-08T00:32:47;6.40;65.90
45491;DHT22;31237;45.586;13.782;2023-04-08T00:35:12;6.40;65.90
45491;DHT22;31237;45.586;13.782;2023-04-08T00:37:38;6.40;65.80
45491;DHT22;31237;45.586;13.782;2023-04-08T00:40:05;6.40;65.70
45491;DHT22;31237;45.586;13.782;2023-04-08T00:42:31;6.40;65.60
45491;DHT22;31237;45.586;13.782;2023-04-08T00:44:57;6.40;65.40
45491;DHT22;31237;45.586;13.782;2023-04-08T00:47:22;6.50;65.30
45491;DHT22;31237;45.586;13.782;2023-04-08T00:49:48;6.50;65.20
45491;DHT22;31237;45.586;13.782;2023-04-08T00:52:14;6.40;65.10
45491;DHT22;31237;45.586;13.782;2023-04-08T00:54:40;6.40;65.10
45491;DHT22;31237;45.586;13.782;2023-04-08T00:57:07;6.50;65.10
45491;DHT22;31237;45.586;13.782;2023-04-08T00:59:33;6.40;65.00
45491;DHT22;31237;45.586;13.782;2023-04-08T01:02:26;6.40;65.00
45491;DHT22;31237;45.586;13.782;2023-04-08T01:05:02;6.40;64.90
45491;DHT22;31237;45.586;13.782;2023-04-08T01:07:31;6.40;64.90
45491;DHT22;31237;45.586;13.782;2023-04-08T01:10:26;6.40;64.90
45491;DHT22;31237;45.586;13.782;2023-04-08T01:12:58;6.40;64.90
45491;DHT22;31237;45.586;13.782;2023-04-08T01:15:25;6.40;64.80
45491;DHT22;31237;45.586;13.782;2023-04-08T01:17:54;6.40;64.70
45491;DHT22;31237;45.586;13.782;2023-04-08T01:20:23;6.40;64.50
45491;DHT22;31237;45.586;13.782;2023-04-08T01:25:55;6.50;64.40
45491;DHT22;31237;45.586;13.782;2023-04-08T01:28:24;6.40;64.20
45491;DHT22;31237;45.586;13.782;2023-04-08T01:30:55;6.40;64.20
45491;DHT22;31237;45.586;13.782;2023-04-08T01:33:21;6.40;64.10
45491;DHT22;31237;45.586;13.782;2023-04-08T01:35:48;6.40;64.00
45491;DHT22;31237;45.586;13.782;2023-04-08T01:38:17;6.40;64.10
45491;DHT22;31237;45.586;13.782;2023-04-08T01:40:45;6.30;63.90
45491;DHT22;31237;45.586;13.782;2023-04-08T01:43:13;6.40;63.80
45491;DHT22;31237;45.586;13.782;2023-04-08T01:45:42;6.40;63.60
45491;DHT22;31237;45.586;13.782;2023-04-08T01:48:08;6.40;63.40
45491;DHT22;31237;45.586;13.782;2023-04-08T01:50:34;6.40;63.90
45491;DHT22;31237;45.586;13.782;2023-04-08T01:53:01;6.40;63.00
45491;DHT22;31237;45.586;13.782;2023-04-08T01:55:29;6.40;62.90
45491;DHT22;31237;45.586;13.782;2023-04-08T01:57:59;6.40;62.60
45491;DHT22;31237;45.586;13.782;2023-04-08T02:00:28;6.50;62.40
45491;DHT22;31237;45.586;13.782;2023-04-08T02:02:54;6.50;62.20
45491;DHT22;31237;45.586;13.782;2023-04-08T02:05:24;6.50;62.00
45491;DHT22;31237;45.586;13.782;2023-04-08T02:07:50;6.50;61.80
45491;DHT22;31237;45.586;13.782;2023-04-08T02:10:16;6.50;61.60
45491;DHT22;31237;45.586;13.782;2023-04-08T02:12:43;6.50;61.60
45491;DHT22;31237;45.586;13.782;2023-04-08T02:15:09;6.60;61.50
45491;DHT22;31237;45.586;13.782;2023-04-08T02:20:06;6.60;61.20
45491;DHT22;31237;45.586;13.782;2023-04-08T02:25:13;6.60;61.00
45491;DHT22;31237;45.586;13.782;2023-04-08T02:27:40;6.70;60.90
45491;DHT22;31237;45.586;13.782;2023-04-08T02:30:08;6.70;60.80
45491;DHT22;31237;45.586;13.782;2023-04-08T02:32:35;6.70;60.50
45491;DHT22;31237;45.586;13.782;2023-04-08T02:35:03;6.80;60.50
45491;DHT22;31237;45.586;13.782;2023-04-08T02:37:31;6.80;60.30
45491;DHT22;31237;45.586;13.782;2023-04-08T02:39:57;6.80;60.20
45491;DHT22;31237;45.586;13.782;2023-04-08T02:42:23;6.80;60.00
45491;DHT22;31237;45.586;13.782;2023-04-08T02:44:49;6.90;59.90
45491;DHT22;31237;45.586;13.782;2023-04-08T02:47:15;6.90;60.40
45491;DHT22;31237;45.586;13.782;2023-04-08T02:49:41;6.90;59.50
45491;DHT22;31237;45.586;13.782;2023-04-08T02:52:06;6.90;59.40
45491;DHT22;31237;45.586;13.782;2023-04-08T02:54:32;7.00;59.40
45491;DHT22;31237;45.586;13.782;2023-04-08T02:56:58;7.00;59.30
45491;DHT22;31237;45.586;13.782;2023-04-08T02:59:23;7.00;59.10
45491;DHT22;31237;45.586;13.782;2023-04-08T03:01:49;7.00;59.00
45491;DHT22;31237;45.586;13.782;2023-04-08T03:04:15;7.00;59.00
45491;DHT22;31237;45.586;13.782;2023-04-08T03:06:41;7.00;58.90
45491;DHT22;31237;45.586;13.782;2023-04-08T03:09:06;7.00;58.90
45491;DHT22;31237;45.586;13.782;2023-04-08T03:11:32;7.00;59.00
45491;DHT22;31237;45.586;13.782;2023-04-08T03:13:58;7.00;59.00
45491;DHT22;31237;45.586;13.782;2023-04-08T03:16:24;6.90;58.90
45491;DHT22;31237;45.586;13.782;2023-04-08T03:18:49;6.90;58.90
45491;DHT22;31237;45.586;13.782;2023-04-08T03:21:16;6.90;58.90
45491;DHT22;31237;45.586;13.782;2023-04-08T03:23:42;6.90;58.90
45491;DHT22;31237;45.586;13.782;2023-04-08T03:26:07;6.90;58.90
45491;DHT22;31237;45.586;13.782;2023-04-08T03:28:33;6.90;58.90
45491;DHT22;31237;45.586;13.782;2023-04-08T03:30:59;6.90;58.80
45491;DHT22;31237;45.586;13.782;2023-04-08T03:33:27;6.90;58.80
45491;DHT22;31237;45.586;13.782;2023-04-08T03:35:53;6.90;58.70
45491;DHT22;31237;45.586;13.782;2023-04-08T03:38:19;6.90;58.70
45491;DHT22;31237;45.586;13.782;2023-04-08T03:40:45;6.90;58.70
45491;DHT22;31237;45.586;13.782;2023-04-08T03:43:10;6.90;58.90
45491;DHT22;31237;45.586;13.782;2023-04-08T03:45:37;6.90;59.00
45491;DHT22;31237;45.586;13.782;2023-04-08T03:48:03;6.80;59.10
45491;DHT22;31237;45.586;13.782;2023-04-08T03:50:29;6.80;59.50
45491;DHT22;31237;45.586;13.782;2023-04-08T03:52:54;6.80;59.70
45491;DHT22;31237;45.586;13.782;2023-04-08T03:55:20;6.80;59.90
45491;DHT22;31237;45.586;13.782;2023-04-08T03:57:46;6.80;60.00
45491;DHT22;31237;45.586;13.782;2023-04-08T04:00:12;6.80;60.30
45491;DHT22;31237;45.586;13.782;2023-04-08T04:02:38;6.90;60.30
45491;DHT22;31237;45.586;13.782;2023-04-08T04:05:04;6.90;60.40
45491;DHT22;31237;45.586;13.782;2023-04-08T04:07:30;6.90;60.50
45491;DHT22;31237;45.586;13.782;2023-04-08T04:09:56;6.90;60.90
45491;DHT22;31237;45.586;13.782;2023-04-08T04:12:22;6.90;60.60
45491;DHT22;31237;45.586;13.782;2023-04-08T04:14:48;6.90;60.50
45491;DHT22;31237;45.586;13.782;2023-04-08T04:17:14;6.90;60.50
45491;DHT22;31237;45.586;13.782;2023-04-08T04:19:40;6.90;60.40
45491;DHT22;31237;45.586;13.782;2023-04-08T04:22:05;6.90;60.90
45491;DHT22;31237;45.586;13.782;2023-04-08T04:24:31;6.90;60.10
45491;DHT22;31237;45.586;13.782;2023-04-08T04:26:57;7.00;60.00
45491;DHT22;31237;45.586;13.782;2023-04-08T04:29:22;6.90;59.90
45491;DHT22;31237;45.586;13.782;2023-04-08T04:31:48;7.00;59.90
45491;DHT22;31237;45.586;13.782;2023-04-08T04:34:14;7.00;59.90
45491;DHT22;31237;45.586;13.782;2023-04-08T04:36:39;7.00;60.10
45491;DHT22;31237;45.586;13.782;2023-04-08T04:39:05;7.00;60.20
45491;DHT22;31237;45.586;13.782;2023-04-08T04:41:31;7.00;60.30
45491;DHT22;31237;45.586;13.782;2023-04-08T04:43:56;7.00;60.40
45491;DHT22;31237;45.586;13.782;2023-04-08T04:46:22;7.00;60.30
45491;DHT22;31237;45.586;13.782;2023-04-08T04:48:48;7.10;60.30
45491;DHT22;31237;45.586;13.782;2023-04-08T04:51:13;7.10;60.30
45491;DHT22;31237;45.586;13.782;2023-04-08T04:53:39;7.10;60.30
45491;DHT22;31237;45.586;13.782;2023-04-08T04:56:05;7.20;60.20
45491;DHT22;31237;45.586;13.782;2023-04-08T04:58:31;7.20;60.20
45491;DHT22;31237;45.586;13.782;2023-04-08T05:00:57;7.20;60.10
45491;DHT22;31237;45.586;13.782;2023-04-08T05:03:22;7.20;60.10
45491;DHT22;31237;45.586;13.782;2023-04-08T05:05:52;7.30;60.10
45491;DHT22;31237;45.586;13.782;2023-04-08T05:08:18;7.30;60.10
45491;DHT22;31237;45.586;13.782;2023-04-08T05:10:44;7.30;60.70
45491;DHT22;31237;45.586;13.782;2023-04-08T05:13:10;7.40;60.10
45491;DHT22;31237;45.586;13.782;2023-04-08T05:15:35;7.40;60.00
45491;DHT22;31237;45.586;13.782;2023-04-08T05:18:01;7.40;60.10
45491;DHT22;31237;45.586;13.782;2023-04-08T05:20:27;7.50;60.10
45491;DHT22;31237;45.586;13.782;2023-04-08T05:22:52;7.60;60.10
45491;DHT22;31237;45.586;13.782;2023-04-08T05:25:18;7.60;60.00
45491;DHT22;31237;45.586;13.782;2023-04-08T05:27:44;7.60;60.10
45491;DHT22;31237;45.586;13.782;2023-04-08T05:30:10;7.70;60.20
45491;DHT22;31237;45.586;13.782;2023-04-08T05:32:36;7.70;60.20
45491;DHT22;31237;45.586;13.782;2023-04-08T05:35:02;7.80;60.20
45491;DHT22;31237;45.586;13.782;2023-04-08T05:37:28;7.80;60.10
45491;DHT22;31237;45.586;13.782;2023-04-08T05:39:54;7.90;60.10
45491;DHT22;31237;45.586;13.782;2023-04-08T05:42:19;7.90;60.00
45491;DHT22;31237;45.586;13.782;2023-04-08T05:44:45;8.00;59.90
45491;DHT22;31237;45.586;13.782;2023-04-08T05:47:11;8.00;59.80
45491;DHT22;31237;45.586;13.782;2023-04-08T05:49:37;8.10;59.70
45491;DHT22;31237;45.586;13.782;2023-04-08T05:52:03;8.20;59.80
45491;DHT22;31237;45.586;13.782;2023-04-08T05:54:28;8.20;59.70
45491;DHT22;31237;45.586;13.782;2023-04-08T05:56:54;8.30;59.70
45491;DHT22;31237;45.586;13.782;2023-04-08T05:59:20;8.30;59.70
45491;DHT22;31237;45.586;13.782;2023-04-08T06:01:46;8.30;59.60
45491;DHT22;31237;45.586;13.782;2023-04-08T06:04:11;8.40;59.70
45491;DHT22;31237;45.586;13.782;2023-04-08T06:06:37;8.40;59.60
45491;DHT22;31237;45.586;13.782;2023-04-08T06:09:05;8.40;59.60
45491;DHT22;31237;45.586;13.782;2023-04-08T06:11:31;8.50;59.50
45491;DHT22;31237;45.586;13.782;2023-04-08T06:13:57;8.50;59.40
45491;DHT22;31237;45.586;13.782;2023-04-08T06:16:23;8.50;59.90
45491;DHT22;31237;45.586;13.782;2023-04-08T06:18:48;8.60;59.20
45491;DHT22;31237;45.586;13.782;2023-04-08T06:21:14;8.60;59.20
45491;DHT22;31237;45.586;13.782;2023-04-08T06:23:40;8.60;59.30
45491;DHT22;31237;45.586;13.782;2023-04-08T06:26:06;8.70;59.80
45491;DHT22;31237;45.586;13.782;2023-04-08T06:28:31;8.70;59.30
45491;DHT22;31237;45.586;13.782;2023-04-08T06:30:58;8.80;59.20
45491;DHT22;31237;45.586;13.782;2023-04-08T06:33:23;8.80;59.20
45491;DHT22;31237;45.586;13.782;2023-04-08T06:35:49;8.90;59.10
45491;DHT22;31237;45.586;13.782;2023-04-08T06:38:15;9.00;59.00
45491;DHT22;31237;45.586;13.782;2023-04-08T06:40:41;9.00;58.80
45491;DHT22;31237;45.586;13.782;2023-04-08T06:43:07;9.10;58.90
45491;DHT22;31237;45.586;13.782;2023-04-08T06:45:33;9.20;58.60
45491;DHT22;31237;45.586;13.782;2023-04-08T06:47:59;9.30;58.60
45491;DHT22;31237;45.586;13.782;2023-04-08T06:50:24;9.40;58.80
45491;DHT22;31237;45.586;13.782;2023-04-08T06:52:50;9.40;59.20
45491;DHT22;31237;45.586;13.782;2023-04-08T06:55:16;9.50;58.60
45491;DHT22;31237;45.586;13.782;2023-04-08T06:57:42;9.60;58.20
45491;DHT22;31237;45.586;13.782;2023-04-08T07:00:08;9.80;58.00
45491;DHT22;31237;45.586;13.782;2023-04-08T07:02:34;9.90;57.90
45491;DHT22;31237;45.586;13.782;2023-04-08T07:05:00;10.00;58.00
45491;DHT22;31237;45.586;13.782;2023-04-08T07:07:26;10.10;58.20
45491;DHT22;31237;45.586;13.782;2023-04-08T07:09:52;10.10;58.30
45491;DHT22;31237;45.586;13.782;2023-04-08T07:12:17;10.20;58.30
45491;DHT22;31237;45.586;13.782;2023-04-08T07:14:43;10.30;58.50
45491;DHT22;31237;45.586;13.782;2023-04-08T07:17:08;10.40;58.40
45491;DHT22;31237;45.586;13.782;2023-04-08T07:19:34;10.50;57.90
45491;DHT22;31237;45.586;13.782;2023-04-08T07:22:00;10.60;57.90
45491;DHT22;31237;45.586;13.782;2023-04-08T07:24:26;10.80;57.80
45491;DHT22;31237;45.586;13.782;2023-04-08T07:26:52;10.90;57.50
45491;DHT22;31237;45.586;13.782;2023-04-08T07:29:21;11.10;57.40
45491;DHT22;31237;45.586;13.782;2023-04-08T07:31:47;11.20;57.10
45491;DHT22;31237;45.586;13.782;2023-04-08T07:34:13;11.40;56.70
45491;DHT22;31237;45.586;13.782;2023-04-08T07:36:38;11.50;56.10
45491;DHT22;31237;45.586;13.782;2023-04-08T07:39:05;11.70;56.00
45491;DHT22;31237;45.586;13.782;2023-04-08T07:41:30;11.80;55.80
45491;DHT22;31237;45.586;13.782;2023-04-08T07:43:56;11.90;55.40
45491;DHT22;31237;45.586;13.782;2023-04-08T07:46:22;12.00;55.20
45491;DHT22;31237;45.586;13.782;2023-04-08T07:48:47;12.20;54.90
45491;DHT22;31237;45.586;13.782;2023-04-08T07:51:13;12.30;54.60
45491;DHT22;31237;45.586;13.782;2023-04-08T07:53:39;12.50;54.50
45491;DHT22;31237;45.586;13.782;2023-04-08T07:56:12;12.60;54.10
45491;DHT22;31237;45.586;13.782;2023-04-08T07:58:38;12.70;53.70
45491;DHT22;31237;45.586;13.782;2023-04-08T08:01:17;12.80;53.40
45491;DHT22;31237;45.586;13.782;2023-04-08T08:03:44;13.00;52.40
45491;DHT22;31237;45.586;13.782;2023-04-08T08:06:12;13.10;51.40
45491;DHT22;31237;45.586;13.782;2023-04-08T08:08:38;13.30;51.20
45491;DHT22;31237;45.586;13.782;2023-04-08T08:11:04;13.40;51.00
45491;DHT22;31237;45.586;13.782;2023-04-08T08:13:29;13.50;50.20
45491;DHT22;31237;45.586;13.782;2023-04-08T08:15:56;13.60;49.10
45491;DHT22;31237;45.586;13.782;2023-04-08T08:18:21;13.70;49.30
45491;DHT22;31237;45.586;13.782;2023-04-08T08:20:47;13.80;48.50
45491;DHT22;31237;45.586;13.782;2023-04-08T08:23:13;13.90;48.30
45491;DHT22;31237;45.586;13.782;2023-04-08T08:25:38;14.00;47.90
45491;DHT22;31237;45.586;13.782;2023-04-08T08:28:04;14.20;47.70
45491;DHT22;31237;45.586;13.782;2023-04-08T08:30:30;14.30;48.10
45491;DHT22;31237;45.586;13.782;2023-04-08T08:32:55;14.30;47.50
45491;DHT22;31237;45.586;13.782;2023-04-08T08:35:23;14.40;46.40
45491;DHT22;31237;45.586;13.782;2023-04-08T08:37:49;14.40;45.50
45491;DHT22;31237;45.586;13.782;2023-04-08T08:40:15;14.50;44.90
45491;DHT22;31237;45.586;13.782;2023-04-08T08:42:41;14.60;44.90
45491;DHT22;31237;45.586;13.782;2023-04-08T08:45:07;14.60;43.80
45491;DHT22;31237;45.586;13.782;2023-04-08T08:47:33;14.70;42.80
45491;DHT22;31237;45.586;13.782;2023-04-08T08:49:59;14.70;42.30
45491;DHT22;31237;45.586;13.782;2023-04-08T08:52:25;14.70;42.80
45491;DHT22;31237;45.586;13.782;2023-04-08T08:54:57;14.80;42.50
45491;DHT22;31237;45.586;13.782;2023-04-08T08:57:23;14.90;42.20
45491;DHT22;31237;45.586;13.782;2023-04-08T08:59:49;15.00;41.00
45491;DHT22;31237;45.586;13.782;2023-04-08T09:02:26;15.10;40.10
45491;DHT22;31237;45.586;13.782;2023-04-08T09:05:00;15.10;40.90
45491;DHT22;31237;45.586;13.782;2023-04-08T09:07:28;15.10;40.00
45491;DHT22;31237;45.586;13.782;2023-04-08T09:09:55;15.10;39.90
45491;DHT22;31237;45.586;13.782;2023-04-08T09:12:22;15.20;40.40
45491;DHT22;31237;45.586;13.782;2023-04-08T09:14:48;15.30;38.10
45491;DHT22;31237;45.586;13.782;2023-04-08T09:17:14;15.40;37.80
45491;DHT22;31237;45.586;13.782;2023-04-08T09:20:18;15.50;37.50
45491;DHT22;31237;45.586;13.782;2023-04-08T09:22:58;15.60;37.90
45491;DHT22;31237;45.586;13.782;2023-04-08T09:25:29;15.50;37.80
45491;DHT22;31237;45.586;13.782;2023-04-08T09:27:55;15.60;38.30
45491;DHT22;31237;45.586;13.782;2023-04-08T09:30:22;15.60;37.40
45491;DHT22;31237;45.586;13.782;2023-04-08T09:32:49;15.60;36.80
45491;DHT22;31237;45.586;13.782;2023-04-08T09:35:17;15.70;36.60
45491;DHT22;31237;45.586;13.782;2023-04-08T09:37:43;15.70;35.40
45491;DHT22;31237;45.586;13.782;2023-04-08T09:40:09;15.70;35.00
45491;DHT22;31237;45.586;13.782;2023-04-08T09:42:39;15.70;34.60
45491;DHT22;31237;45.586;13.782;2023-04-08T09:45:06;15.80;34.20
45491;DHT22;31237;45.586;13.782;2023-04-08T09:47:41;15.90;33.90
45491;DHT22;31237;45.586;13.782;2023-04-08T09:50:08;16.00;32.70
45491;DHT22;31237;45.586;13.782;2023-04-08T09:52:45;16.00;32.30
45491;DHT22;31237;45.586;13.782;2023-04-08T09:55:12;16.00;33.30
45491;DHT22;31237;45.586;13.782;2023-04-08T10:00:14;16.20;32.80
45491;DHT22;31237;45.586;13.782;2023-04-08T10:05:14;16.20;33.50
45491;DHT22;31237;45.586;13.782;2023-04-08T10:07:41;16.30;34.10
45491;DHT22;31237;45.586;13.782;2023-04-08T10:10:08;16.20;34.70
45491;DHT22;31237;45.586;13.782;2023-04-08T10:12:36;16.20;37.10
45491;DHT22;31237;45.586;13.782;2023-04-08T10:15:21;16.20;37.30
45491;DHT22;31237;45.586;13.782;2023-04-08T10:17:51;16.20;37.50
45491;DHT22;31237;45.586;13.782;2023-04-08T10:23:11;16.10;36.40
45491;DHT22;31237;45.586;13.782;2023-04-08T10:25:45;16.10;36.30
45491;DHT22;31237;45.586;13.782;2023-04-08T10:33:30;16.00;36.80
45491;DHT22;31237;45.586;13.782;2023-04-08T10:36:09;16.00;36.30
45491;DHT22;31237;45.586;13.782;2023-04-08T10:38:36;16.00;36.90
45491;DHT22;31237;45.586;13.782;2023-04-08T10:41:02;15.90;37.20
45491;DHT22;31237;45.586;13.782;2023-04-08T10:43:33;15.70;38.00
45491;DHT22;31237;45.586;13.782;2023-04-08T10:45:59;15.60;38.50
45491;DHT22;31237;45.586;13.782;2023-04-08T10:48:25;15.60;38.60
45491;DHT22;31237;45.586;13.782;2023-04-08T10:51:01;15.50;38.30
45491;DHT22;31237;45.586;13.782;2023-04-08T10:53:32;15.40;38.30
45491;DHT22;31237;45.586;13.782;2023-04-08T10:56:14;15.40;38.50
45491;DHT22;31237;45.586;13.782;2023-04-08T10:58:51;15.40;39.30
45491;DHT22;31237;45.586;13.782;2023-04-08T11:01:17;15.40;40.30
45491;DHT22;31237;45.586;13.782;2023-04-08T11:03:43;15.60;40.60
45491;DHT22;31237;45.586;13.782;2023-04-08T11:06:09;15.60;41.30
45491;DHT22;31237;45.586;13.782;2023-04-08T11:08:35;15.60;41.80
45491;DHT22;31237;45.586;13.782;2023-04-08T11:11:03;15.60;42.20
45491;DHT22;31237;45.586;13.782;2023-04-08T11:13:33;15.60;43.00
45491;DHT22;31237;45.586;13.782;2023-04-08T11:16:00;15.70;43.00
45491;DHT22;31237;45.586;13.782;2023-04-08T11:18:27;15.80;44.30
45491;DHT22;31237;45.586;13.782;2023-04-08T11:20:53;15.80;44.60
45491;DHT22;31237;45.586;13.782;2023-04-08T11:23:19;15.80;45.00
45491;DHT22;31237;45.586;13.782;2023-04-08T11:25:47;15.80;46.50
45491;DHT22;31237;45.586;13.782;2023-04-08T11:28:13;15.90;46.40
45491;DHT22;31237;45.586;13.782;2023-04-08T11:30:39;15.80;46.20
45491;DHT22;31237;45.586;13.782;2023-04-08T11:33:09;15.70;47.40
45491;DHT22;31237;45.586;13.782;2023-04-08T11:35:42;15.80;48.20
45491;DHT22;31237;45.586;13.782;2023-04-08T11:38:11;15.90;48.30
45491;DHT22;31237;45.586;13.782;2023-04-08T11:40:37;16.00;48.20
45491;DHT22;31237;45.586;13.782;2023-04-08T11:43:10;16.10;48.50
45491;DHT22;31237;45.586;13.782;2023-04-08T11:45:38;16.20;48.80
45491;DHT22;31237;45.586;13.782;2023-04-08T11:48:11;16.30;48.80
45491;DHT22;31237;45.586;13.782;2023-04-08T11:50:39;16.40;49.30
45491;DHT22;31237;45.586;13.782;2023-04-08T11:53:34;16.40;49.70
45491;DHT22;31237;45.586;13.782;2023-04-08T11:56:20;16.50;50.10
45491;DHT22;31237;45.586;13.782;2023-04-08T11:58:48;16.50;50.30
45491;DHT22;31237;45.586;13.782;2023-04-08T12:01:14;16.40;50.20
45491;DHT22;31237;45.586;13.782;2023-04-08T12:03:57;16.40;50.60
45491;DHT22;31237;45.586;13.782;2023-04-08T12:06:23;16.40;50.20
45491;DHT22;31237;45.586;13.782;2023-04-08T12:08:49;16.30;50.50
45491;DHT22;31237;45.586;13.782;2023-04-08T12:11:15;16.20;50.40
45491;DHT22;31237;45.586;13.782;2023-04-08T12:13:41;16.10;50.60
45491;DHT22;31237;45.586;13.782;2023-04-08T12:16:07;16.00;51.50
45491;DHT22;31237;45.586;13.782;2023-04-08T12:18:32;15.90;52.60
45491;DHT22;31237;45.586;13.782;2023-04-08T12:20:58;15.90;51.90
45491;DHT22;31237;45.586;13.782;2023-04-08T12:23:24;15.90;51.90
45491;DHT22;31237;45.586;13.782;2023-04-08T12:25:50;15.80;52.00
45491;DHT22;31237;45.586;13.782;2023-04-08T12:28:16;15.80;53.00
45491;DHT22;31237;45.586;13.782;2023-04-08T12:30:41;15.80;52.40
45491;DHT22;31237;45.586;13.782;2023-04-08T12:33:07;15.80;52.60
45491;DHT22;31237;45.586;13.782;2023-04-08T12:35:33;15.80;52.70
45491;DHT22;31237;45.586;13.782;2023-04-08T12:37:58;15.70;53.00
45491;DHT22;31237;45.586;13.782;2023-04-08T12:40:24;15.70;53.50
45491;DHT22;31237;45.586;13.782;2023-04-08T12:42:50;15.60;53.70
45491;DHT22;31237;45.586;13.782;2023-04-08T12:45:15;15.70;54.00
45491;DHT22;31237;45.586;13.782;2023-04-08T12:47:41;15.70;54.00
45491;DHT22;31237;45.586;13.782;2023-04-08T12:50:07;15.70;53.80
45491;DHT22;31237;45.586;13.782;2023-04-08T12:52:34;15.60;54.00
45491;DHT22;31237;45.586;13.782;2023-04-08T12:55:00;15.50;54.60
45491;DHT22;31237;45.586;13.782;2023-04-08T12:57:26;15.40;54.50
45491;DHT22;31237;45.586;13.782;2023-04-08T12:59:52;15.40;54.70
45491;DHT22;31237;45.586;13.782;2023-04-08T13:02:18;15.30;55.40
45491;DHT22;31237;45.586;13.782;2023-04-08T13:04:44;15.20;55.80
45491;DHT22;31237;45.586;13.782;2023-04-08T13:07:09;15.10;56.80
45491;DHT22;31237;45.586;13.782;2023-04-08T13:09:35;15.20;57.30
45491;DHT22;31237;45.586;13.782;2023-04-08T13:12:04;15.20;57.30
45491;DHT22;31237;45.586;13.782;2023-04-08T13:14:30;15.30;57.50
45491;DHT22;31237;45.586;13.782;2023-04-08T13:16:55;15.30;57.70
45491;DHT22;31237;45.586;13.782;2023-04-08T13:19:21;15.30;58.00
45491;DHT22;31237;45.586;13.782;2023-04-08T13:21:47;15.30;58.30
45491;DHT22;31237;45.586;13.782;2023-04-08T13:24:12;15.30;58.60
45491;DHT22;31237;45.586;13.782;2023-04-08T13:26:38;15.30;58.80
45491;DHT22;31237;45.586;13.782;2023-04-08T13:29:04;15.30;59.10
45491;DHT22;31237;45.586;13.782;2023-04-08T13:31:29;15.30;59.10
45491;DHT22;31237;45.586;13.782;2023-04-08T13:33:55;15.30;59.10
45491;DHT22;31237;45.586;13.782;2023-04-08T13:36:21;15.20;59.10
45491;DHT22;31237;45.586;13.782;2023-04-08T13:38:46;15.10;59.60
45491;DHT22;31237;45.586;13.782;2023-04-08T13:41:12;15.00;59.80
45491;DHT22;31237;45.586;13.782;2023-04-08T13:43:38;14.90;60.30
45491;DHT22;31237;45.586;13.782;2023-04-08T13:46:03;14.90;60.90
45491;DHT22;31237;45.586;13.782;2023-04-08T13:48:29;14.80;61.10
45491;DHT22;31237;45.586;13.782;2023-04-08T13:50:55;14.80;61.30
45491;DHT22;31237;45.586;13.782;2023-04-08T13:53:20;14.70;61.20
45491;DHT22;31237;45.586;13.782;2023-04-08T13:55:46;14.70;62.00
45491;DHT22;31237;45.586;13.782;2023-04-08T13:58:12;14.80;62.10
45491;DHT22;31237;45.586;13.782;2023-04-08T14:00:37;14.70;62.70
45491;DHT22;31237;45.586;13.782;2023-04-08T14:03:03;14.70;63.30
45491;DHT22;31237;45.586;13.782;2023-04-08T14:05:29;14.70;63.90
45491;DHT22;31237;45.586;13.782;2023-04-08T14:07:54;14.70;63.90
45491;DHT22;31237;45.586;13.782;2023-04-08T14:10:20;14.70;64.10
45491;DHT22;31237;45.586;13.782;2023-04-08T14:12:46;14.70;64.60
45491;DHT22;31237;45.586;13.782;2023-04-08T14:15:11;14.70;65.00
45491;DHT22;31237;45.586;13.782;2023-04-08T14:17:37;14.70;65.10
45491;DHT22;31237;45.586;13.782;2023-04-08T14:20:03;14.70;65.00
45491;DHT22;31237;45.586;13.782;2023-04-08T14:22:30;14.60;65.30
45491;DHT22;31237;45.586;13.782;2023-04-08T14:24:56;14.60;65.70
45491;DHT22;31237;45.586;13.782;2023-04-08T14:27:22;14.60;66.00
45491;DHT22;31237;45.586;13.782;2023-04-08T14:29:47;14.50;66.20
45491;DHT22;31237;45.586;13.782;2023-04-08T14:32:13;14.50;66.60
45491;DHT22;31237;45.586;13.782;2023-04-08T14:34:39;14.50;66.30
45491;DHT22;31237;45.586;13.782;2023-04-08T14:37:04;14.40;66.20
45491;DHT22;31237;45.586;13.782;2023-04-08T14:39:30;14.40;66.30
45491;DHT22;31237;45.586;13.782;2023-04-08T14:41:55;14.40;66.70
45491;DHT22;31237;45.586;13.782;2023-04-08T14:44:23;14.30;66.70
45491;DHT22;31237;45.586;13.782;2023-04-08T14:46:48;14.20;67.10
45491;DHT22;31237;45.586;13.782;2023-04-08T14:49:14;14.10;67.50
45491;DHT22;31237;45.586;13.782;2023-04-08T14:51:40;14.10;67.80
45491;DHT22;31237;45.586;13.782;2023-04-08T14:54:05;14.10;67.70
45491;DHT22;31237;45.586;13.782;2023-04-08T14:56:31;14.10;68.20
45491;DHT22;31237;45.586;13.782;2023-04-08T14:58:57;14.10;68.20
45491;DHT22;31237;45.586;13.782;2023-04-08T15:01:23;14.10;69.00
45491;DHT22;31237;45.586;13.782;2023-04-08T15:03:48;14.00;69.10
45491;DHT22;31237;45.586;13.782;2023-04-08T15:06:14;13.90;69.40
45491;DHT22;31237;45.586;13.782;2023-04-08T15:08:42;13.90;70.00
45491;DHT22;31237;45.586;13.782;2023-04-08T15:11:08;13.90;70.60
45491;DHT22;31237;45.586;13.782;2023-04-08T15:13:34;13.80;71.00
45491;DHT22;31237;45.586;13.782;2023-04-08T15:16:02;13.80;71.10
45491;DHT22;31237;45.586;13.782;2023-04-08T15:18:28;13.80;71.60
45491;DHT22;31237;45.586;13.782;2023-04-08T15:20:53;13.80;71.90
45491;DHT22;31237;45.586;13.782;2023-04-08T15:23:19;13.70;72.20
45491;DHT22;31237;45.586;13.782;2023-04-08T15:25:45;13.70;72.50
45491;DHT22;31237;45.586;13.782;2023-04-08T15:28:10;13.70;72.30
45491;DHT22;31237;45.586;13.782;2023-04-08T15:30:36;13.70;72.50
45491;DHT22;31237;45.586;13.782;2023-04-08T15:33:03;13.60;72.80
45491;DHT22;31237;45.586;13.782;2023-04-08T15:35:29;13.60;73.60
45491;DHT22;31237;45.586;13.782;2023-04-08T15:37:54;13.60;74.70
45491;DHT22;31237;45.586;13.782;2023-04-08T15:40:20;13.60;75.70
45491;DHT22;31237;45.586;13.782;2023-04-08T15:42:46;13.50;76.70